Milburn, Kentucky
Current Conditions -  °F | °C
As of 4:55 PM on Monday 24 Nov 2014 (Local Time) from KM25 Reporting Station
Scattered Clouds Scattered Clouds  
Wind Chill: 48°   Ceiling: Unl
Heat Index: 48°   Visibility: 10mi
Dew Point: 32°   Wind: 0mph
Humidity: 54%   Direction: NA
Pressure: 29.89"   Gusts: NA
Location:  36.8°N, 88.9°W
Report Text: KM25 242255Z AUTO 00000KT 10SM SCT049 09/00 A2989 RMK AO2
Loading
Personal Weather Stations






























Interactive Weather Map New forecast layout! Learn more

10-Day Weather Forecast

Advertisements
Track Severe Weather on mobile